Time;durP1;ratioP1;P1;durP2;ratioP2;P2;SDS_P1;SDS_P2;PMS_P1;PMS_P2;Temp;Humidity;BMP_temperature;BMP_pressure;BME280_temperature;BME280_humidity;BME280_pressure;Samples;Min_cycle;Max_cycle;Signal;HPM_P1;HPM_P2
2021/12/15 00:00:26;;;;;;;11.38;2.00;;;;;;;;;;5019602;28;20041;-72
2021/12/15 00:02:53;;;;;;;6.10;1.13;;;;;;;;;;4992823;28;20037;-71
2021/12/15 00:05:23;;;;;;;7.88;1.77;;;;;;;;;;5015371;28;20060;-72
2021/12/15 00:07:54;;;;;;;4.85;2.08;;;;;;;;;;5010648;28;20041;-72
2021/12/15 00:10:21;;;;;;;8.77;1.80;;;;;;;;;;4992704;28;20041;-71
2021/12/15 00:12:47;;;;;;;9.40;1.85;;;;;;;;;;5021534;28;20045;-72
2021/12/15 00:15:14;;;;;;;6.30;1.45;;;;;;;;;;5012468;28;20084;-71
2021/12/15 00:17:40;;;;;;;9.52;1.90;;;;;;;;;;4988053;28;20034;-71
2021/12/15 00:20:11;;;;;;;10.77;2.63;;;;;;;;;;4999786;28;20459;-72
2021/12/15 00:22:37;;;;;;;8.43;1.63;;;;;;;;;;4987370;28;20121;-71
2021/12/15 00:25:04;;;;;;;10.40;2.10;;;;;;;;;;4990514;28;20042;-72
2021/12/15 00:27:30;;;;;;;7.38;1.58;;;;;;;;;;5017064;28;20037;-72
2021/12/15 00:29:55;;;;;;;11.93;2.17;;;;;;;;;;5008843;28;20417;-70
2021/12/15 00:32:21;;;;;;;11.55;1.85;;;;;;;;;;5016421;28;20065;-72
2021/12/15 00:34:48;;;;;;;5.05;1.45;;;;;;;;;;5003259;28;20035;-71
2021/12/15 00:37:13;;;;;;;4.22;1.30;;;;;;;;;;4999671;28;20030;-72
2021/12/15 00:39:39;;;;;;;8.10;1.73;;;;;;;;;;5021984;28;20101;-71
2021/12/15 00:42:05;;;;;;;12.00;2.10;;;;;;;;;;5021362;28;20553;-70
2021/12/15 00:44:31;;;;;;;11.15;1.50;;;;;;;;;;5007160;28;20030;-71
2021/12/15 00:46:56;;;;;;;5.80;1.92;;;;;;;;;;5000304;28;20060;-71
2021/12/15 00:49:23;;;;;;;14.70;1.90;;;;;;;;;;5021648;28;20045;-71
2021/12/15 00:51:49;;;;;;;4.70;1.00;;;;;;;;;;5008067;28;20073;-71
2021/12/15 00:54:15;;;;;;;6.50;1.75;;;;;;;;;;5007637;28;20364;-72
2021/12/15 00:56:41;;;;;;;10.07;2.28;;;;;;;;;;5014432;28;20038;-73
2021/12/15 00:59:09;;;;;;;8.13;2.20;;;;;;;;;;5015973;28;20038;-73
2021/12/15 01:01:37;;;;;;;12.57;2.05;;;;;;;;;;4996810;28;20042;-71
2021/12/15 01:04:04;;;;;;;5.38;1.80;;;;;;;;;;5013771;28;20042;-71
2021/12/15 01:06:30;;;;;;;7.32;1.85;;;;;;;;;;5013085;28;20109;-70
2021/12/15 01:09:00;;;;;;;8.93;1.58;;;;;;;;;;4986138;28;20034;-69
2021/12/15 01:20:22;;;;;;;10.27;2.15;;;;;;;;;;5008884;28;20057;-71
2021/12/15 01:22:51;;;;;;;5.88;1.40;;;;;;;;;;5017449;28;20038;-71
2021/12/15 01:25:27;;;;;;;4.45;1.42;;;;;;;;;;5019841;28;20057;-71
2021/12/15 01:27:53;;;;;;;5.40;1.30;;;;;;;;;;5014287;28;20538;-71
2021/12/15 01:30:23;;;;;;;2.08;1.05;;;;;;;;;;5017456;28;20105;-70
2021/12/15 01:32:49;;;;;;;8.68;1.95;;;;;;;;;;5014604;28;20054;-72
2021/12/15 01:35:16;;;;;;;8.15;1.98;;;;;;;;;;5007953;28;20042;-71
2021/12/15 01:37:42;;;;;;;7.13;1.63;;;;;;;;;;5020353;28;20097;-72
2021/12/15 01:40:16;;;;;;;12.43;2.50;;;;;;;;;;5003821;28;20037;-73
2021/12/15 01:42:41;;;;;;;;;;;;;;;;;;4989035;28;20044;-72
2021/12/15 01:48:11;;;;;;;7.40;1.98;;;;;;;;;;5011792;28;20058;-72
2021/12/15 01:50:37;;;;;;;7.95;2.03;;;;;;;;;;4985430;28;20023;-72
2021/12/15 01:53:05;;;;;;;6.88;1.92;;;;;;;;;;5016160;28;20030;-73
2021/12/15 01:55:30;;;;;;;6.28;1.52;;;;;;;;;;5013448;28;20097;-71
2021/12/15 01:57:56;;;;;;;5.00;1.48;;;;;;;;;;5005461;28;20093;-73
2021/12/15 02:00:34;;;;;;;8.07;2.95;;;;;;;;;;5018066;28;20026;-71
2021/12/15 02:03:00;;;;;;;4.55;1.80;;;;;;;;;;5022146;28;20490;-71
2021/12/15 02:05:27;;;;;;;12.80;2.22;;;;;;;;;;5021697;28;20093;-71
2021/12/15 02:07:54;;;;;;;3.92;1.63;;;;;;;;;;4999481;28;20116;-71
2021/12/15 02:10:22;;;;;;;10.70;2.40;;;;;;;;;;5006026;28;20252;-72
2021/12/15 02:12:47;;;;;;;7.93;2.00;;;;;;;;;;5014274;28;20029;-70
2021/12/15 02:15:24;;;;;;;7.47;1.85;;;;;;;;;;5023720;28;20064;-71
2021/12/15 02:17:52;;;;;;;15.35;1.90;;;;;;;;;;5015362;28;20036;-71
2021/12/15 02:20:19;;;;;;;3.10;1.33;;;;;;;;;;5007968;28;20026;-71
2021/12/15 02:22:45;;;;;;;5.55;1.90;;;;;;;;;;4995024;28;20030;-71
2021/12/15 02:25:14;;;;;;;5.40;1.77;;;;;;;;;;5024730;28;20041;-71
2021/12/15 02:27:40;;;;;;;8.18;1.80;;;;;;;;;;4990581;28;20130;-70
2021/12/15 02:30:24;;;;;;;4.07;1.55;;;;;;;;;;5025437;28;20066;-72
2021/12/15 02:33:09;;;;;;;6.03;1.63;;;;;;;;;;5022726;28;20113;-70
2021/12/15 02:38:34;;;;;;;5.28;2.03;;;;;;;;;;5016401;28;20053;-70
2021/12/15 02:41:07;;;;;;;6.15;2.03;;;;;;;;;;5024739;28;20026;-72
2021/12/15 02:43:33;;;;;;;5.50;1.60;;;;;;;;;;5020765;28;20030;-71
2021/12/15 02:45:59;;;;;;;9.10;2.38;;;;;;;;;;5005297;28;20042;-71
2021/12/15 02:48:25;;;;;;;1.58;0.80;;;;;;;;;;5020508;28;20057;-72
2021/12/15 02:50:50;;;;;;;8.38;1.83;;;;;;;;;;5012607;28;20030;-70
2021/12/15 02:53:17;;;;;;;7.55;1.55;;;;;;;;;;5017093;28;20073;-70
2021/12/15 02:55:43;;;;;;;7.72;2.20;;;;;;;;;;5020989;28;20053;-70
2021/12/15 02:58:09;;;;;;;6.65;2.00;;;;;;;;;;5015905;28;20041;-70
2021/12/15 03:01:22;;;;;;;1.33;1.15;;;;;;;;;;4993000;28;20030;-71
2021/12/15 03:06:17;;;;;;;3.25;1.48;;;;;;;;;;5022666;28;20044;-72
2021/12/15 03:15:17;;;;;;;3.72;0.98;;;;;;;;;;5020764;28;20040;-71
2021/12/15 03:16:59;;;;;;;5.32;1.83;;;;;;;;;;5017333;28;20052;-70
2021/12/15 03:19:25;;;;;;;4.30;1.88;;;;;;;;;;5005774;28;20030;-70
2021/12/15 03:21:50;;;;;;;2.85;1.30;;;;;;;;;;5023568;28;20474;-71
2021/12/15 03:24:20;;;;;;;5.28;1.70;;;;;;;;;;5002643;28;20132;-71
2021/12/15 03:26:58;;;;;;;3.75;1.60;;;;;;;;;;5019909;28;20034;-71
2021/12/15 03:35:16;;;;;;;2.65;1.33;;;;;;;;;;5004768;28;20531;-71
2021/12/15 03:37:47;;;;;;;6.85;2.15;;;;;;;;;;4986019;28;20178;-71
2021/12/15 03:40:20;;;;;;;4.60;1.38;;;;;;;;;;5004156;28;20036;-71
2021/12/15 03:42:48;;;;;;;5.30;1.88;;;;;;;;;;5002879;28;20026;-72
2021/12/15 03:45:20;;;;;;;6.28;1.85;;;;;;;;;;5003362;28;20089;-70
2021/12/15 03:47:49;;;;;;;3.88;2.10;;;;;;;;;;5001093;28;20035;-70
2021/12/15 03:50:18;;;;;;;8.23;2.75;;;;;;;;;;5003693;28;20046;-71
2021/12/15 03:52:48;;;;;;;9.98;2.33;;;;;;;;;;4986690;28;20034;-70
2021/12/15 03:55:13;;;;;;;4.18;1.52;;;;;;;;;;5003686;28;20088;-69
2021/12/15 03:57:39;;;;;;;5.53;1.98;;;;;;;;;;4985853;28;20077;-70
2021/12/15 04:00:07;;;;;;;2.55;1.42;;;;;;;;;;5003432;28;20034;-72
2021/12/15 04:02:33;;;;;;;5.43;1.65;;;;;;;;;;5003695;28;20026;-70
2021/12/15 04:04:58;;;;;;;5.40;1.98;;;;;;;;;;5003298;28;20037;-70
2021/12/15 04:07:24;;;;;;;4.00;1.52;;;;;;;;;;5003492;28;20049;-71
2021/12/15 04:09:51;;;;;;;4.70;1.63;;;;;;;;;;4981327;28;20034;-70
2021/12/15 04:12:17;;;;;;;3.80;1.90;;;;;;;;;;5001677;28;20037;-71
2021/12/15 04:14:54;;;;;;;7.50;2.22;;;;;;;;;;4998315;28;20407;-71
2021/12/15 04:17:26;;;;;;;6.75;1.77;;;;;;;;;;4992618;28;20049;-70
2021/12/15 04:19:56;;;;;;;8.23;2.65;;;;;;;;;;5003077;28;20056;-70
2021/12/15 04:22:23;;;;;;;12.48;3.33;;;;;;;;;;5003946;28;20032;-70
2021/12/15 04:24:48;;;;;;;5.22;2.50;;;;;;;;;;5004066;28;20098;-71
2021/12/15 04:27:14;;;;;;;12.52;3.90;;;;;;;;;;5004210;28;20030;-71
2021/12/15 04:29:40;;;;;;;10.98;8.02;;;;;;;;;;5004077;28;20026;-70
2021/12/15 04:32:12;;;;;;;19.70;8.40;;;;;;;;;;5004267;28;20045;-71
2021/12/15 04:34:37;;;;;;;13.13;4.72;;;;;;;;;;5004170;28;20030;-71
2021/12/15 04:37:03;;;;;;;10.48;3.67;;;;;;;;;;5004050;28;20033;-71
2021/12/15 04:39:29;;;;;;;15.45;8.65;;;;;;;;;;5004193;28;20030;-71
2021/12/15 04:41:57;;;;;;;11.13;4.72;;;;;;;;;;4986190;28;20069;-70
2021/12/15 04:44:29;;;;;;;6.10;3.45;;;;;;;;;;4986152;28;20038;-70
2021/12/15 04:47:01;;;;;;;4.82;3.38;;;;;;;;;;5003564;28;20408;-71
2021/12/15 04:49:30;;;;;;;5.57;3.50;;;;;;;;;;5003871;28;20057;-70
2021/12/15 04:51:57;;;;;;;9.00;6.72;;;;;;;;;;5003978;28;20094;-71
2021/12/15 04:54:23;;;;;;;14.30;7.15;;;;;;;;;;5003937;28;20038;-71
2021/12/15 04:56:48;;;;;;;11.80;7.22;;;;;;;;;;4986045;28;20126;-69
2021/12/15 04:59:15;;;;;;;7.72;4.70;;;;;;;;;;5003969;28;20054;-71
2021/12/15 05:01:42;;;;;;;7.88;3.35;;;;;;;;;;5003058;28;20117;-71
2021/12/15 05:04:07;;;;;;;6.65;4.28;;;;;;;;;;5003828;28;20041;-70
2021/12/15 05:06:33;;;;;;;10.88;5.85;;;;;;;;;;5003779;28;20030;-71
2021/12/15 05:08:59;;;;;;;8.30;3.70;;;;;;;;;;4986331;28;20054;-72
2021/12/15 05:11:24;;;;;;;10.43;3.47;;;;;;;;;;5003709;28;20061;-73
2021/12/15 05:13:50;;;;;;;10.85;4.20;;;;;;;;;;5003731;28;20038;-70
2021/12/15 05:16:16;;;;;;;11.00;4.00;;;;;;;;;;5003469;28;20033;-70
2021/12/15 05:18:43;;;;;;;7.07;3.33;;;;;;;;;;4986293;28;20031;-71
2021/12/15 05:21:10;;;;;;;8.80;4.13;;;;;;;;;;4985491;28;20038;-71
2021/12/15 05:23:36;;;;;;;9.63;4.68;;;;;;;;;;5003677;28;20034;-71
2021/12/15 05:26:02;;;;;;;6.45;3.15;;;;;;;;;;5003636;28;20026;-70
2021/12/15 05:28:31;;;;;;;8.18;4.90;;;;;;;;;;4986146;28;20471;-70
2021/12/15 05:30:58;;;;;;;7.15;3.83;;;;;;;;;;5003248;28;20075;-71
2021/12/15 05:33:24;;;;;;;6.45;3.88;;;;;;;;;;5007368;28;20081;-70
2021/12/15 05:35:51;;;;;;;10.02;4.60;;;;;;;;;;4989924;28;20038;-71
2021/12/15 05:38:17;;;;;;;10.20;4.68;;;;;;;;;;5007314;28;20370;-71
2021/12/15 05:40:43;;;;;;;12.73;4.78;;;;;;;;;;4989740;28;20046;-70
2021/12/15 05:43:09;;;;;;;5.22;2.60;;;;;;;;;;5007051;28;20030;-72
2021/12/15 05:45:37;;;;;;;11.27;4.65;;;;;;;;;;5007121;28;20102;-73
2021/12/15 05:48:04;;;;;;;8.95;3.50;;;;;;;;;;5006983;28;20035;-71
2021/12/15 05:50:31;;;;;;;7.13;3.78;;;;;;;;;;5007267;28;20041;-71
2021/12/15 05:52:58;;;;;;;6.10;2.92;;;;;;;;;;5006863;28;20046;-73
2021/12/15 05:55:24;;;;;;;9.57;3.65;;;;;;;;;;5007072;28;20107;-71
2021/12/15 05:57:50;;;;;;;5.47;3.30;;;;;;;;;;4989374;28;20033;-73
2021/12/15 06:00:25;;;;;;;10.02;3.95;;;;;;;;;;5007144;28;20113;-71
2021/12/15 06:02:52;;;;;;;6.82;3.67;;;;;;;;;;4988926;28;20030;-70
2021/12/15 06:05:18;;;;;;;7.38;3.35;;;;;;;;;;5006924;28;20038;-72
2021/12/15 06:07:44;;;;;;;6.10;3.05;;;;;;;;;;4989017;28;20027;-71
2021/12/15 06:10:15;;;;;;;5.35;2.97;;;;;;;;;;5006913;28;20034;-71
2021/12/15 06:12:43;;;;;;;7.20;4.13;;;;;;;;;;5006479;28;20023;-71
2021/12/15 06:15:09;;;;;;;6.70;2.85;;;;;;;;;;5006444;28;20487;-72
2021/12/15 06:17:35;;;;;;;10.80;3.83;;;;;;;;;;5006454;28;20022;-71
2021/12/15 06:20:00;;;;;;;9.05;4.45;;;;;;;;;;4988925;28;20034;-70
2021/12/15 06:22:28;;;;;;;7.72;4.45;;;;;;;;;;5006343;28;20469;-72
2021/12/15 06:24:55;;;;;;;6.32;3.28;;;;;;;;;;5006169;28;20034;-70
2021/12/15 06:27:22;;;;;;;8.50;4.13;;;;;;;;;;5006316;28;20038;-73
2021/12/15 06:29:50;;;;;;;8.05;4.05;;;;;;;;;;5005994;28;20026;-73
2021/12/15 06:32:16;;;;;;;10.80;4.47;;;;;;;;;;5005936;28;20061;-72
2021/12/15 06:34:42;;;;;;;11.95;5.35;;;;;;;;;;5006392;28;20030;-71
2021/12/15 06:37:08;;;;;;;7.47;3.80;;;;;;;;;;5006122;28;20085;-72
2021/12/15 06:39:35;;;;;;;10.93;3.85;;;;;;;;;;4988735;28;20037;-71
2021/12/15 06:42:00;;;;;;;10.40;3.75;;;;;;;;;;5005922;28;20324;-72
2021/12/15 06:44:26;;;;;;;14.20;5.05;;;;;;;;;;5004839;28;20034;-71
2021/12/15 07:00:13;;;;;;;6.20;3.13;;;;;;;;;;5005360;28;19972;-72
2021/12/15 07:02:40;;;;;;;7.18;3.45;;;;;;;;;;5005456;28;20464;-72
2021/12/15 07:05:11;;;;;;;10.35;4.20;;;;;;;;;;5005329;28;20045;-73
2021/12/15 07:07:39;;;;;;;6.18;2.95;;;;;;;;;;5005263;28;20400;-72
2021/12/15 07:10:08;;;;;;;11.13;4.45;;;;;;;;;;4988026;28;20142;-71
2021/12/15 07:12:33;;;;;;;7.93;3.65;;;;;;;;;;5005274;28;20030;-72
2021/12/15 07:14:59;;;;;;;11.68;4.07;;;;;;;;;;5005374;28;20033;-72
2021/12/15 07:17:25;;;;;;;10.80;4.72;;;;;;;;;;5005339;28;20044;-71
2021/12/15 07:20:06;;;;;;;8.30;3.85;;;;;;;;;;5005176;28;20464;-73
2021/12/15 07:25:07;;;;;;;9.55;3.78;;;;;;;;;;5005017;28;20137;-72
2021/12/15 07:27:32;;;;;;;7.22;3.97;;;;;;;;;;5004842;28;20042;-72
2021/12/15 07:29:58;;;;;;;9.48;4.43;;;;;;;;;;4987380;28;20050;-72
2021/12/15 07:32:23;;;;;;;10.18;4.88;;;;;;;;;;4987070;28;20048;-71
2021/12/15 07:34:49;;;;;;;6.32;3.55;;;;;;;;;;5004930;28;20109;-73
2021/12/15 07:37:14;;;;;;;9.23;3.92;;;;;;;;;;5004478;28;20108;-72
2021/12/15 07:39:47;;;;;;;8.43;4.53;;;;;;;;;;5004691;28;20022;-72
2021/12/15 07:42:14;;;;;;;6.95;3.42;;;;;;;;;;5004129;28;20037;-71
2021/12/15 07:44:39;;;;;;;9.25;4.45;;;;;;;;;;5004535;28;20022;-72
2021/12/15 07:47:06;;;;;;;10.13;4.68;;;;;;;;;;5004168;28;20026;-72
2021/12/15 07:49:33;;;;;;;6.35;3.05;;;;;;;;;;5004425;28;20022;-72
2021/12/15 07:52:04;;;;;;;8.23;3.38;;;;;;;;;;5003531;28;20113;-73
2021/12/15 07:54:35;;;;;;;10.18;4.15;;;;;;;;;;4985650;28;20053;-72
2021/12/15 07:57:05;;;;;;;12.35;5.70;;;;;;;;;;5003797;28;20421;-73
2021/12/15 07:59:30;;;;;;;10.25;4.18;;;;;;;;;;5004504;28;20034;-71
2021/12/15 08:01:56;;;;;;;10.60;5.05;;;;;;;;;;4986876;28;20037;-72
2021/12/15 08:04:21;;;;;;;6.88;3.10;;;;;;;;;;5004405;28;20042;-72
2021/12/15 08:06:47;;;;;;;8.30;3.92;;;;;;;;;;5004201;28;20022;-72
2021/12/15 08:09:14;;;;;;;7.93;4.22;;;;;;;;;;4986746;28;20471;-74
2021/12/15 08:11:40;;;;;;;8.60;4.15;;;;;;;;;;5004119;28;20063;-73
2021/12/15 08:14:06;;;;;;;6.47;2.75;;;;;;;;;;5004209;28;20030;-71
2021/12/15 08:16:32;;;;;;;8.30;4.30;;;;;;;;;;5003993;28;20085;-71
2021/12/15 08:18:58;;;;;;;5.97;2.97;;;;;;;;;;5003944;28;20034;-71
2021/12/15 08:21:23;;;;;;;12.65;4.28;;;;;;;;;;4986497;28;20058;-72
2021/12/15 08:23:49;;;;;;;6.43;4.32;;;;;;;;;;4986509;28;20022;-71
2021/12/15 08:26:15;;;;;;;8.25;4.20;;;;;;;;;;5004039;28;20034;-72
2021/12/15 08:28:40;;;;;;;9.82;5.20;;;;;;;;;;5003962;28;20037;-70
2021/12/15 08:31:07;;;;;;;6.55;3.22;;;;;;;;;;4990632;28;20062;-72
2021/12/15 08:33:33;;;;;;;11.20;4.25;;;;;;;;;;4966753;28;20086;-71
2021/12/15 08:36:06;;;;;;;6.93;2.63;;;;;;;;;;4984052;28;20039;-72
2021/12/15 08:38:34;;;;;;;6.32;3.70;;;;;;;;;;4984180;28;20035;-72
2021/12/15 08:41:04;;;;;;;8.40;3.13;;;;;;;;;;4983923;28;20049;-72
2021/12/15 08:43:29;;;;;;;5.75;3.10;;;;;;;;;;4984438;28;20031;-72
2021/12/15 08:45:59;;;;;;;3.20;2.05;;;;;;;;;;4983903;28;20241;-72
2021/12/15 08:48:24;;;;;;;7.20;3.28;;;;;;;;;;4983944;28;20037;-71
2021/12/15 08:50:50;;;;;;;5.60;3.30;;;;;;;;;;4984318;28;20023;-73
2021/12/15 08:53:16;;;;;;;8.73;4.60;;;;;;;;;;4984034;28;20030;-72
2021/12/15 08:55:46;;;;;;;4.82;2.40;;;;;;;;;;4966418;28;20058;-71
2021/12/15 08:58:13;;;;;;;7.30;3.55;;;;;;;;;;4983995;28;20221;-72
2021/12/15 09:00:46;;;;;;;6.45;3.30;;;;;;;;;;4984283;28;20063;-71
2021/12/15 09:03:14;;;;;;;5.10;2.40;;;;;;;;;;4984093;28;20019;-72
2021/12/15 09:05:41;;;;;;;5.68;2.70;;;;;;;;;;4984162;28;20049;-71
2021/12/15 09:08:09;;;;;;;8.95;3.80;;;;;;;;;;4970190;28;20037;-71
2021/12/15 09:10:37;;;;;;;6.53;3.58;;;;;;;;;;4988075;28;20039;-72
2021/12/15 09:13:03;;;;;;;7.82;3.20;;;;;;;;;;4987882;28;20051;-71
2021/12/15 09:15:29;;;;;;;5.22;2.85;;;;;;;;;;4987785;28;20031;-72
2021/12/15 09:17:55;;;;;;;6.22;3.65;;;;;;;;;;4987568;28;20053;-73
2021/12/15 09:20:25;;;;;;;7.43;4.05;;;;;;;;;;4987837;28;20035;-72
2021/12/15 09:22:50;;;;;;;8.23;3.05;;;;;;;;;;4987584;28;20098;-72
2021/12/15 09:25:16;;;;;;;6.40;3.75;;;;;;;;;;4970441;28;20066;-73
2021/12/15 09:27:43;;;;;;;5.68;3.35;;;;;;;;;;4970022;28;20093;-72
2021/12/15 09:30:13;;;;;;;5.30;2.72;;;;;;;;;;4987556;28;20082;-71
2021/12/15 09:32:38;;;;;;;5.53;2.85;;;;;;;;;;4987657;28;20284;-71
2021/12/15 09:35:06;;;;;;;9.27;2.80;;;;;;;;;;4987318;28;20023;-72
2021/12/15 09:37:32;;;;;;;6.18;3.35;;;;;;;;;;4987360;28;20078;-71
2021/12/15 09:39:58;;;;;;;4.53;2.92;;;;;;;;;;4970015;28;20034;-71
2021/12/15 09:42:30;;;;;;;8.10;3.30;;;;;;;;;;4987348;28;20027;-72
2021/12/15 09:45:01;;;;;;;5.30;2.85;;;;;;;;;;4969930;28;20035;-72
2021/12/15 09:48:02;;;;;;;7.10;3.45;;;;;;;;;;4987277;28;20290;-73
2021/12/15 10:17:53;;;;;;;7.25;2.35;;;;;;;;;;4986264;28;20061;-73
2021/12/15 10:20:24;;;;;;;2.67;1.92;;;;;;;;;;4969444;28;20372;-73
2021/12/15 10:22:54;;;;;;;9.73;3.10;;;;;;;;;;4986440;28;20086;-72
2021/12/15 10:25:33;;;;;;;8.95;3.17;;;;;;;;;;4969292;28;20065;-72
2021/12/15 10:28:09;;;;;;;6.22;2.80;;;;;;;;;;4985722;28;20030;-72
2021/12/15 10:30:43;;;;;;;6.03;2.40;;;;;;;;;;4977700;28;20114;-73
2021/12/15 10:33:19;;;;;;;6.68;2.83;;;;;;;;;;5005777;28;20068;-73
2021/12/15 10:35:49;;;;;;;8.00;3.22;;;;;;;;;;5005002;28;20041;-74
2021/12/15 10:38:26;;;;;;;5.53;2.63;;;;;;;;;;4987947;28;20070;-72
2021/12/15 10:41:18;;;;;;;3.83;2.30;;;;;;;;;;5005719;28;20049;-73
2021/12/15 10:43:57;;;;;;;8.52;2.67;;;;;;;;;;4988363;28;20132;-72
2021/12/15 10:46:22;;;;;;;6.22;2.70;;;;;;;;;;5005449;28;20035;-73
2021/12/15 10:48:51;;;;;;;7.60;2.90;;;;;;;;;;5005564;28;20026;-74
2021/12/15 10:51:30;;;;;;;4.25;2.40;;;;;;;;;;4988135;28;20033;-74
2021/12/15 10:54:17;;;;;;;4.15;2.53;;;;;;;;;;5005691;28;20032;-75
2021/12/15 10:56:53;;;;;;;3.92;2.00;;;;;;;;;;4987605;28;20042;-73
2021/12/15 10:59:21;;;;;;;9.05;2.42;;;;;;;;;;4988215;28;20030;-73
2021/12/15 11:01:51;;;;;;;4.93;2.20;;;;;;;;;;4987660;28;20129;-73
2021/12/15 11:04:23;;;;;;;7.07;2.90;;;;;;;;;;5005366;28;20023;-74
2021/12/15 11:07:09;;;;;;;6.95;3.20;;;;;;;;;;5005272;28;20036;-73
2021/12/15 11:09:57;;;;;;;4.50;2.47;;;;;;;;;;4987957;28;20034;-75
2021/12/15 11:12:25;;;;;;;8.02;3.83;;;;;;;;;;5004885;28;20050;-73
2021/12/15 11:15:05;;;;;;;5.25;3.15;;;;;;;;;;4987811;28;20086;-74
2021/12/15 11:17:41;;;;;;;6.68;3.60;;;;;;;;;;5005173;28;20434;-73
2021/12/15 11:20:30;;;;;;;6.68;2.88;;;;;;;;;;4987709;28;20065;-73
2021/12/15 11:23:00;;;;;;;5.90;2.97;;;;;;;;;;5004933;28;20069;-73
2021/12/15 11:25:44;;;;;;;9.27;4.18;;;;;;;;;;5005038;28;20038;-73
2021/12/15 11:28:29;;;;;;;6.38;2.70;;;;;;;;;;4987043;28;20045;-74
2021/12/15 11:31:01;;;;;;;6.80;2.80;;;;;;;;;;5004558;28;20042;-72
2021/12/15 11:33:37;;;;;;;6.28;3.25;;;;;;;;;;5005159;28;20057;-74
2021/12/15 11:36:14;;;;;;;9.65;3.42;;;;;;;;;;5005009;28;20033;-73
2021/12/15 11:38:57;;;;;;;6.18;3.20;;;;;;;;;;5005434;28;20055;-74
2021/12/15 11:41:25;;;;;;;4.55;2.22;;;;;;;;;;5005071;28;20045;-73
2021/12/15 11:44:02;;;;;;;7.13;3.03;;;;;;;;;;4987173;28;20034;-74
2021/12/15 11:46:31;;;;;;;6.20;3.10;;;;;;;;;;5003466;28;20034;-75
2021/12/15 11:49:13;;;;;;;5.75;3.05;;;;;;;;;;5004779;28;20031;-72
2021/12/15 11:51:46;;;;;;;8.43;3.20;;;;;;;;;;4986850;28;20035;-73
2021/12/15 11:54:17;;;;;;;6.82;2.58;;;;;;;;;;4987414;28;20119;-74
2021/12/15 11:56:44;;;;;;;6.63;3.00;;;;;;;;;;4986983;28;20038;-73
2021/12/15 11:59:21;;;;;;;7.30;2.60;;;;;;;;;;5004741;28;20464;-73
2021/12/15 12:02:20;;;;;;;4.60;2.85;;;;;;;;;;5004612;28;20130;-73
2021/12/15 12:04:49;;;;;;;6.85;3.17;;;;;;;;;;4987029;28;20045;-75
2021/12/15 12:07:37;;;;;;;7.25;2.75;;;;;;;;;;4986882;28;20394;-73
2021/12/15 12:10:10;;;;;;;4.80;2.50;;;;;;;;;;4987166;28;20031;-73
2021/12/15 12:12:47;;;;;;;2.72;1.08;;;;;;;;;;4986997;28;20054;-73
2021/12/15 12:15:16;;;;;;;5.50;2.80;;;;;;;;;;5004667;28;20038;-73
2021/12/15 12:17:47;;;;;;;7.20;3.00;;;;;;;;;;5004187;28;20054;-73
2021/12/15 12:20:20;;;;;;;3.58;2.33;;;;;;;;;;5004238;28;20057;-74
2021/12/15 12:22:48;;;;;;;5.70;1.85;;;;;;;;;;5004578;28;20097;-73
2021/12/15 12:25:17;;;;;;;5.00;2.92;;;;;;;;;;5004465;28;20045;-74
2021/12/15 12:27:44;;;;;;;7.00;2.38;;;;;;;;;;5003917;28;20026;-72
2021/12/15 12:30:18;;;;;;;4.18;2.13;;;;;;;;;;5003958;28;20081;-73
2021/12/15 12:32:44;;;;;;;5.25;1.92;;;;;;;;;;4986530;28;20472;-73
2021/12/15 12:35:12;;;;;;;5.18;2.17;;;;;;;;;;5003975;28;20045;-74
2021/12/15 12:37:39;;;;;;;4.35;2.08;;;;;;;;;;4986446;28;20089;-74
2021/12/15 12:40:24;;;;;;;5.07;2.47;;;;;;;;;;4986426;28;20037;-73
2021/12/15 12:42:51;;;;;;;8.32;2.67;;;;;;;;;;5002824;28;20098;-74
2021/12/15 12:45:35;;;;;;;7.53;2.45;;;;;;;;;;4985524;28;20034;-73
2021/12/15 12:59:35;;;;;;;4.35;1.73;;;;;;;;;;5002508;28;20061;-74
2021/12/15 13:02:05;;;;;;;5.78;2.13;;;;;;;;;;5001907;28;20030;-75
2021/12/15 13:04:42;;;;;;;3.10;1.50;;;;;;;;;;5002599;28;20026;-74
2021/12/15 13:07:08;;;;;;;5.15;1.77;;;;;;;;;;5003846;28;20495;-73
2021/12/15 13:09:49;;;;;;;3.72;1.83;;;;;;;;;;5003231;28;20026;-72
2021/12/15 13:12:25;;;;;;;3.45;1.50;;;;;;;;;;4984803;28;20073;-73
2021/12/15 13:14:54;;;;;;;4.85;1.95;;;;;;;;;;4985603;28;20030;-74
2021/12/15 13:17:24;;;;;;;3.08;1.60;;;;;;;;;;5002586;28;20094;-74
2021/12/15 13:19:50;;;;;;;6.72;1.60;;;;;;;;;;5002684;28;20034;-73
2021/12/15 13:30:52;;;;;;;3.53;1.80;;;;;;;;;;5003271;28;20053;-73
2021/12/15 13:33:29;;;;;;;3.50;1.90;;;;;;;;;;5003789;28;20547;-73
2021/12/15 13:36:05;;;;;;;4.95;1.75;;;;;;;;;;5003222;28;20511;-73
2021/12/15 13:38:33;;;;;;;3.95;2.00;;;;;;;;;;5003159;28;20027;-73
2021/12/15 13:41:18;;;;;;;4.15;1.33;;;;;;;;;;5003386;28;20475;-73
2021/12/15 13:43:47;;;;;;;3.40;1.20;;;;;;;;;;4986460;28;20063;-73
2021/12/15 13:46:28;;;;;;;4.57;1.67;;;;;;;;;;4986432;28;20526;-74
2021/12/15 13:49:02;;;;;;;8.60;1.80;;;;;;;;;;4986125;28;20357;-73
2021/12/15 13:52:03;;;;;;;6.10;1.65;;;;;;;;;;5002316;28;20101;-75
2021/12/15 13:54:35;;;;;;;6.07;1.85;;;;;;;;;;4955135;28;20046;-74
2021/12/15 13:57:02;;;;;;;4.10;1.73;;;;;;;;;;5006853;28;20026;-74
2021/12/15 13:59:35;;;;;;;6.95;2.30;;;;;;;;;;5006649;28;20037;-73
2021/12/15 14:02:14;;;;;;;4.72;2.00;;;;;;;;;;5006079;28;20023;-75
2021/12/15 14:04:43;;;;;;;5.25;1.75;;;;;;;;;;4988841;28;20495;-72
2021/12/15 14:07:40;;;;;;;5.38;1.90;;;;;;;;;;5006380;28;20509;-72
2021/12/15 14:10:12;;;;;;;4.40;1.60;;;;;;;;;;4988541;28;20042;-74
2021/12/15 14:12:47;;;;;;;4.18;1.90;;;;;;;;;;4988772;28;20089;-73
2021/12/15 14:15:24;;;;;;;5.63;1.88;;;;;;;;;;5005487;28;20339;-73
2021/12/15 14:18:17;;;;;;;6.82;2.10;;;;;;;;;;5005311;28;20026;-73
2021/12/15 14:20:44;;;;;;;8.93;2.25;;;;;;;;;;5005365;28;20031;-72
2021/12/15 14:23:20;;;;;;;7.60;2.08;;;;;;;;;;5005253;28;20064;-74
2021/12/15 14:25:47;;;;;;;3.88;2.08;;;;;;;;;;5005432;28;20038;-72
2021/12/15 14:28:18;;;;;;;5.63;2.10;;;;;;;;;;5006238;28;20031;-73
2021/12/15 14:30:47;;;;;;;7.90;2.50;;;;;;;;;;5005644;28;20050;-73
2021/12/15 14:33:30;;;;;;;5.63;1.85;;;;;;;;;;5005473;28;20030;-73
2021/12/15 14:35:59;;;;;;;6.28;2.50;;;;;;;;;;5005927;28;20034;-73
2021/12/15 14:38:50;;;;;;;7.63;2.53;;;;;;;;;;5005744;28;20030;-72
2021/12/15 14:41:26;;;;;;;6.75;2.20;;;;;;;;;;5005034;28;20044;-72
2021/12/15 14:44:09;;;;;;;4.55;1.55;;;;;;;;;;4987273;28;20022;-73
2021/12/15 14:46:52;;;;;;;6.07;2.25;;;;;;;;;;5004937;28;20099;-73
2021/12/15 14:49:29;;;;;;;5.40;2.00;;;;;;;;;;5004937;28;20078;-73
2021/12/15 14:51:58;;;;;;;5.70;1.80;;;;;;;;;;5004887;28;20057;-74
2021/12/15 14:54:26;;;;;;;4.85;2.25;;;;;;;;;;5005316;28;20051;-74
2021/12/15 14:56:59;;;;;;;6.70;1.67;;;;;;;;;;5004829;28;20037;-73
2021/12/15 14:59:32;;;;;;;10.02;1.75;;;;;;;;;;4987544;28;20114;-73
2021/12/15 15:02:07;;;;;;;8.70;2.40;;;;;;;;;;5004810;28;20046;-74
2021/12/15 15:04:33;;;;;;;5.90;2.05;;;;;;;;;;5004063;28;20026;-73
2021/12/15 15:07:03;;;;;;;3.35;1.70;;;;;;;;;;5005464;28;20066;-73
2021/12/15 15:09:37;;;;;;;3.67;1.50;;;;;;;;;;5005834;28;20077;-72
2021/12/15 15:12:05;;;;;;;3.38;1.63;;;;;;;;;;4987754;28;20046;-74
2021/12/15 15:14:36;;;;;;;2.60;1.38;;;;;;;;;;5005655;28;20459;-75
2021/12/15 15:17:04;;;;;;;6.30;1.70;;;;;;;;;;4987102;28;20034;-74
2021/12/15 15:19:31;;;;;;;4.53;1.83;;;;;;;;;;5004677;28;20036;-74
2021/12/15 15:21:59;;;;;;;3.53;1.38;;;;;;;;;;4986803;28;20093;-73
2021/12/15 15:24:35;;;;;;;7.40;1.40;;;;;;;;;;4986896;28;20022;-74
2021/12/15 15:27:07;;;;;;;4.15;1.45;;;;;;;;;;5004455;28;20026;-74
2021/12/15 15:29:52;;;;;;;4.03;1.73;;;;;;;;;;5005277;28;20034;-73
2021/12/15 15:32:22;;;;;;;3.60;1.60;;;;;;;;;;5005193;28;20053;-73
2021/12/15 15:34:49;;;;;;;4.07;1.70;;;;;;;;;;5005349;28;20033;-74
2021/12/15 15:37:21;;;;;;;3.33;1.70;;;;;;;;;;5005094;28;20084;-76
2021/12/15 15:40:04;;;;;;;5.32;1.67;;;;;;;;;;4987771;28;20034;-73
2021/12/15 15:42:30;;;;;;;2.05;1.50;;;;;;;;;;5005167;28;20034;-74
2021/12/15 15:44:55;;;;;;;3.95;1.40;;;;;;;;;;5004812;28;20093;-73
2021/12/15 15:47:23;;;;;;;4.88;1.65;;;;;;;;;;5004976;28;20031;-74
2021/12/15 15:50:04;;;;;;;3.42;1.42;;;;;;;;;;4987222;28;20030;-73
2021/12/15 15:52:40;;;;;;;4.55;1.30;;;;;;;;;;5004592;28;20055;-74
2021/12/15 15:55:06;;;;;;;3.97;1.67;;;;;;;;;;4986808;28;20022;-73
2021/12/15 15:57:32;;;;;;;4.13;1.40;;;;;;;;;;4986647;28;20023;-73
2021/12/15 15:59:57;;;;;;;3.38;1.33;;;;;;;;;;5004813;28;20073;-74
2021/12/15 16:02:23;;;;;;;2.53;1.33;;;;;;;;;;5004701;28;20042;-74
2021/12/15 16:04:48;;;;;;;4.15;1.40;;;;;;;;;;5004961;28;20034;-74
2021/12/15 16:07:21;;;;;;;3.78;1.30;;;;;;;;;;5004431;28;20038;-73
2021/12/15 16:09:49;;;;;;;2.90;1.30;;;;;;;;;;4986404;28;20125;-74
2021/12/15 16:12:16;;;;;;;3.13;1.10;;;;;;;;;;5003327;28;20041;-74
2021/12/15 16:14:49;;;;;;;4.00;1.35;;;;;;;;;;5004546;28;20030;-74
2021/12/15 16:17:25;;;;;;;4.75;1.10;;;;;;;;;;5003717;28;20235;-75
2021/12/15 16:20:13;;;;;;;1.92;1.25;;;;;;;;;;4986824;28;20038;-73
2021/12/15 16:22:51;;;;;;;2.70;1.30;;;;;;;;;;5003999;28;20034;-73
2021/12/15 16:25:38;;;;;;;3.55;1.45;;;;;;;;;;5004582;28;20153;-73
2021/12/15 16:28:17;;;;;;;4.28;1.35;;;;;;;;;;4986704;28;20383;-74
2021/12/15 16:30:47;;;;;;;3.50;1.38;;;;;;;;;;4986406;28;20126;-73